LROP/OTP METAR and TAF weather

Enter ICAO airport designator
Station Type Date Time Source
LROP METAR 2019/05/21 21:30 UTC NOAA

LROP 212130Z 22006KT CAVOK 13/12 Q1012 NOSIG


Station Type Date Time Source
LROP Decoded METAR 2019/05/21 21:30 UTC NOAA

Bucuresti Otopeni, Romania (LROP) 44-33N 026-06E 95M
May 21, 2019 - 05:30 PM EDT / 2019.05.21 2130 UTC
Wind: from the SW (220 degrees) at 7 MPH (6 KT):0
Visibility: greater than 7 mile(s):0
Temperature: 55 F (13 C)
Dew Point: 53 F (12 C)
Relative Humidity: 93%
Pressure (altimeter): 29.88 in. Hg (1012 hPa)
ob: LROP 212130Z 22006KT CAVOK 13/12 Q1012 NOSIG
cycle: 21

Station Type Date Time Source
LROP TAF 2019/05/21 18:33 UTC NOAA

TAF LROP 211700Z 2118/2218 24006KT CAVOK
TEMPO 2201/2204 3000 BR
BECMG 2209/2211 27010KT
TEMPO 2212/2214 27020G30KT SCT035CB

Example: see airport list